Hovedside
METAR-TAF:

METAR-TAF

Lufthavner :

Halli lufthavn

Jämsä, Finland

breddegrad: 61-51N, lengdegrad: 024-48E, høyde over havet: 143 m

Gjeldene værobservasjon

Denne rapporten ble laget for 37 minutter siden, klokken 04:20 UTC
Vind 3 kt fra Sør-sørøst
Temperatur 12°C
Luftfuktighet 67%
Trykk 1005 hPa
Sikt 10 km eller mer
ingen skyer under 1500 m og ingen bygeskyer

METAR: EFHA 210420Z AUTO 15003KT CAVOK 12/06 Q1005

Tid: 07:57 (04:57 UTC)

Varsel

Denne rapporten ble laget for 2 timer og 21 minutter siden, klokken 02:36 UTC
Varsel gyldig fra 21. klokken 03 UTC til 21. klokken 12 UTC
Vind 3 kt fra Sør-sørøst
Sikt 10 km eller mer
ingen skyer under 1500 m og ingen bygeskyer

TAF: EFHA 210236Z 2103/2112 16003KT CAVOK

Værobservasjoner og værvarsel for over 4000 flyplasser (METAR- og TAF-rapporter).

Tilgjengelige stasjoner er representert av de røde og gule prikkene på kartet.

Hold musepekeren over prikken for å se navnet på stasjonen.

Klikk så for å se værobservasjoner og -varsler.

For å forandre kartet kan du klikke på den grønne knappen med svart kryss for å zoome inn, på den grønne knappen med strek for å zoome ut, eller på de grønne pilene for å se tilstøtende kart.


METAR-TAF: